Spencer, Idaho
Current Conditions -  °F | °C
As of 2:53 AM on Sunday 25 Jan 2015 (Local Time) from KRXE Reporting Station
Haze Haze  
Wind Chill: 25°   Ceiling: 200
Heat Index: 25°   Visibility: 2mi
Dew Point: 25°   Wind: 0mph
Humidity: 100%   Direction: NA
Pressure: 30.45"   Gusts: NA
Location:  44.36°N, 112.19°W
Report Text: KRXE 250953Z AUTO 00000KT 2SM BR OVC002 M04/M04 A3045 RMK AO2 SLP350 T10391039
Loading
Personal Weather Stations






























Interactive Weather Map New forecast layout! Learn more

10-Day Weather Forecast

Advertisements
Track Severe Weather on mobile